sensor_id;sensor_type;location;lat;lon;timestamp;P1;durP1;ratioP1;P2;durP2;ratioP2
28834;SDS011;15969;51.536;11.884;2023-03-14T00:01:34;1.30;;;0.80;;
28834;SDS011;15969;51.536;11.884;2023-03-14T00:04:00;0.80;;;0.80;;
28834;SDS011;15969;51.536;11.884;2023-03-14T00:06:25;1.27;;;0.97;;
28834;SDS011;15969;51.536;11.884;2023-03-14T00:08:51;1.10;;;0.70;;
28834;SDS011;15969;51.536;11.884;2023-03-14T00:11:18;0.77;;;0.60;;
28834;SDS011;15969;51.536;11.884;2023-03-14T00:13:46;1.10;;;0.80;;
28834;SDS011;15969;51.536;11.884;2023-03-14T00:16:15;0.83;;;0.60;;
28834;SDS011;15969;51.536;11.884;2023-03-14T00:18:41;1.00;;;0.70;;
28834;SDS011;15969;51.536;11.884;2023-03-14T00:21:08;1.23;;;0.60;;
28834;SDS011;15969;51.536;11.884;2023-03-14T00:23:35;1.30;;;0.80;;
28834;SDS011;15969;51.536;11.884;2023-03-14T00:26:04;1.53;;;0.70;;
28834;SDS011;15969;51.536;11.884;2023-03-14T00:28:34;1.47;;;0.67;;
28834;SDS011;15969;51.536;11.884;2023-03-14T00:31:04;1.03;;;0.70;;
28834;SDS011;15969;51.536;11.884;2023-03-14T00:33:31;1.50;;;0.80;;
28834;SDS011;15969;51.536;11.884;2023-03-14T00:36:02;1.03;;;0.73;;
28834;SDS011;15969;51.536;11.884;2023-03-14T00:38:31;0.70;;;0.63;;
28834;SDS011;15969;51.536;11.884;2023-03-14T00:40:58;1.63;;;0.70;;
28834;SDS011;15969;51.536;11.884;2023-03-14T00:43:24;1.67;;;0.80;;
28834;SDS011;15969;51.536;11.884;2023-03-14T00:45:50;0.60;;;0.57;;
28834;SDS011;15969;51.536;11.884;2023-03-14T00:48:17;0.70;;;0.60;;
28834;SDS011;15969;51.536;11.884;2023-03-14T00:50:44;1.47;;;0.70;;
28834;SDS011;15969;51.536;11.884;2023-03-14T00:53:10;1.63;;;0.77;;
28834;SDS011;15969;51.536;11.884;2023-03-14T00:55:39;2.00;;;0.60;;
28834;SDS011;15969;51.536;11.884;2023-03-14T00:58:07;1.83;;;0.90;;
28834;SDS011;15969;51.536;11.884;2023-03-14T01:00:35;1.23;;;0.60;;
28834;SDS011;15969;51.536;11.884;2023-03-14T01:03:01;0.93;;;0.70;;
28834;SDS011;15969;51.536;11.884;2023-03-14T01:05:28;0.70;;;0.50;;
28834;SDS011;15969;51.536;11.884;2023-03-14T01:07:53;1.70;;;0.60;;
28834;SDS011;15969;51.536;11.884;2023-03-14T01:10:19;2.30;;;0.73;;
28834;SDS011;15969;51.536;11.884;2023-03-14T01:12:45;1.10;;;0.90;;
28834;SDS011;15969;51.536;11.884;2023-03-14T01:15:11;0.60;;;0.53;;
28834;SDS011;15969;51.536;11.884;2023-03-14T01:17:36;1.67;;;0.63;;
28834;SDS011;15969;51.536;11.884;2023-03-14T01:20:04;0.83;;;0.60;;
28834;SDS011;15969;51.536;11.884;2023-03-14T01:22:34;1.47;;;0.73;;
28834;SDS011;15969;51.536;11.884;2023-03-14T01:25:01;1.00;;;0.80;;
28834;SDS011;15969;51.536;11.884;2023-03-14T01:27:26;0.80;;;0.70;;
28834;SDS011;15969;51.536;11.884;2023-03-14T01:29:52;1.10;;;0.80;;
28834;SDS011;15969;51.536;11.884;2023-03-14T01:32:18;0.70;;;0.70;;
28834;SDS011;15969;51.536;11.884;2023-03-14T01:34:43;0.80;;;0.80;;
28834;SDS011;15969;51.536;11.884;2023-03-14T01:37:09;1.57;;;0.63;;
28834;SDS011;15969;51.536;11.884;2023-03-14T01:39:36;0.60;;;0.50;;
28834;SDS011;15969;51.536;11.884;2023-03-14T01:42:02;1.70;;;0.80;;
28834;SDS011;15969;51.536;11.884;2023-03-14T01:44:44;0.93;;;0.77;;
28834;SDS011;15969;51.536;11.884;2023-03-14T01:47:19;0.80;;;0.60;;
28834;SDS011;15969;51.536;11.884;2023-03-14T01:49:46;0.80;;;0.60;;
28834;SDS011;15969;51.536;11.884;2023-03-14T01:52:25;0.60;;;0.60;;
28834;SDS011;15969;51.536;11.884;2023-03-14T01:55:03;1.60;;;0.70;;
28834;SDS011;15969;51.536;11.884;2023-03-14T01:57:39;1.17;;;0.93;;
28834;SDS011;15969;51.536;11.884;2023-03-14T02:00:17;1.13;;;0.77;;
28834;SDS011;15969;51.536;11.884;2023-03-14T02:02:47;2.00;;;0.70;;
28834;SDS011;15969;51.536;11.884;2023-03-14T02:05:27;3.00;;;0.90;;
28834;SDS011;15969;51.536;11.884;2023-03-14T02:07:59;0.90;;;0.70;;
28834;SDS011;15969;51.536;11.884;2023-03-14T02:10:34;1.53;;;1.00;;
28834;SDS011;15969;51.536;11.884;2023-03-14T02:13:04;0.80;;;0.70;;
28834;SDS011;15969;51.536;11.884;2023-03-14T02:15:31;0.70;;;0.60;;
28834;SDS011;15969;51.536;11.884;2023-03-14T02:17:57;1.17;;;0.80;;
28834;SDS011;15969;51.536;11.884;2023-03-14T02:20:45;0.80;;;0.80;;
28834;SDS011;15969;51.536;11.884;2023-03-14T02:23:16;0.70;;;0.60;;
28834;SDS011;15969;51.536;11.884;2023-03-14T02:26:01;1.07;;;0.97;;
28834;SDS011;15969;51.536;11.884;2023-03-14T02:28:34;1.80;;;0.77;;
28834;SDS011;15969;51.536;11.884;2023-03-14T02:30:59;1.10;;;1.00;;
28834;SDS011;15969;51.536;11.884;2023-03-14T02:33:25;0.90;;;0.67;;
28834;SDS011;15969;51.536;11.884;2023-03-14T02:35:59;0.60;;;0.60;;
28834;SDS011;15969;51.536;11.884;2023-03-14T02:41:28;0.90;;;0.70;;
28834;SDS011;15969;51.536;11.884;2023-03-14T02:43:54;1.80;;;0.90;;
28834;SDS011;15969;51.536;11.884;2023-03-14T02:46:20;0.60;;;0.60;;
28834;SDS011;15969;51.536;11.884;2023-03-14T02:48:48;1.40;;;0.80;;
28834;SDS011;15969;51.536;11.884;2023-03-14T02:51:23;1.50;;;0.60;;
28834;SDS011;15969;51.536;11.884;2023-03-14T02:53:51;2.20;;;0.93;;
28834;SDS011;15969;51.536;11.884;2023-03-14T02:56:16;2.10;;;1.03;;
28834;SDS011;15969;51.536;11.884;2023-03-14T02:58:42;1.10;;;0.80;;
28834;SDS011;15969;51.536;11.884;2023-03-14T03:01:08;2.00;;;0.80;;
28834;SDS011;15969;51.536;11.884;2023-03-14T03:03:33;1.33;;;0.70;;
28834;SDS011;15969;51.536;11.884;2023-03-14T03:05:59;2.40;;;0.80;;
28834;SDS011;15969;51.536;11.884;2023-03-14T03:08:26;0.93;;;0.70;;
28834;SDS011;15969;51.536;11.884;2023-03-14T03:10:52;1.43;;;0.77;;
28834;SDS011;15969;51.536;11.884;2023-03-14T03:13:18;1.97;;;0.67;;
28834;SDS011;15969;51.536;11.884;2023-03-14T03:15:44;1.70;;;0.80;;
28834;SDS011;15969;51.536;11.884;2023-03-14T03:18:10;3.13;;;0.73;;
28834;SDS011;15969;51.536;11.884;2023-03-14T03:20:36;0.70;;;0.60;;
28834;SDS011;15969;51.536;11.884;2023-03-14T03:23:02;1.07;;;0.93;;
28834;SDS011;15969;51.536;11.884;2023-03-14T03:25:28;1.03;;;0.67;;
28834;SDS011;15969;51.536;11.884;2023-03-14T03:27:54;1.57;;;0.63;;
28834;SDS011;15969;51.536;11.884;2023-03-14T03:30:20;1.77;;;0.97;;
28834;SDS011;15969;51.536;11.884;2023-03-14T03:32:46;1.17;;;0.93;;
28834;SDS011;15969;51.536;11.884;2023-03-14T03:35:12;3.03;;;0.83;;
28834;SDS011;15969;51.536;11.884;2023-03-14T03:37:38;0.67;;;0.63;;
28834;SDS011;15969;51.536;11.884;2023-03-14T03:40:04;1.43;;;0.80;;
28834;SDS011;15969;51.536;11.884;2023-03-14T03:42:31;2.07;;;1.00;;
28834;SDS011;15969;51.536;11.884;2023-03-14T03:44:58;1.10;;;0.70;;
28834;SDS011;15969;51.536;11.884;2023-03-14T03:47:25;5.50;;;0.70;;
28834;SDS011;15969;51.536;11.884;2023-03-14T03:49:51;3.03;;;0.87;;
28834;SDS011;15969;51.536;11.884;2023-03-14T03:52:16;1.20;;;0.80;;
28834;SDS011;15969;51.536;11.884;2023-03-14T03:54:43;1.73;;;0.87;;
28834;SDS011;15969;51.536;11.884;2023-03-14T03:57:08;1.10;;;0.80;;
28834;SDS011;15969;51.536;11.884;2023-03-14T03:59:34;2.60;;;0.80;;
28834;SDS011;15969;51.536;11.884;2023-03-14T04:02:00;1.60;;;0.80;;
28834;SDS011;15969;51.536;11.884;2023-03-14T04:04:26;1.83;;;1.20;;
28834;SDS011;15969;51.536;11.884;2023-03-14T04:06:51;1.27;;;0.80;;
28834;SDS011;15969;51.536;11.884;2023-03-14T04:09:17;1.73;;;0.80;;
28834;SDS011;15969;51.536;11.884;2023-03-14T04:11:43;2.00;;;1.00;;
28834;SDS011;15969;51.536;11.884;2023-03-14T04:14:09;2.43;;;0.97;;
28834;SDS011;15969;51.536;11.884;2023-03-14T04:16:35;1.20;;;0.70;;
28834;SDS011;15969;51.536;11.884;2023-03-14T04:19:01;2.23;;;0.73;;
28834;SDS011;15969;51.536;11.884;2023-03-14T04:21:27;4.47;;;1.13;;
28834;SDS011;15969;51.536;11.884;2023-03-14T04:23:53;1.07;;;0.80;;
28834;SDS011;15969;51.536;11.884;2023-03-14T04:26:19;2.57;;;1.00;;
28834;SDS011;15969;51.536;11.884;2023-03-14T04:28:44;3.07;;;0.93;;
28834;SDS011;15969;51.536;11.884;2023-03-14T04:31:11;3.07;;;1.03;;
28834;SDS011;15969;51.536;11.884;2023-03-14T04:33:43;2.60;;;1.27;;
28834;SDS011;15969;51.536;11.884;2023-03-14T04:36:09;2.33;;;1.00;;
28834;SDS011;15969;51.536;11.884;2023-03-14T04:38:35;4.93;;;1.40;;
28834;SDS011;15969;51.536;11.884;2023-03-14T04:41:01;2.43;;;0.90;;
28834;SDS011;15969;51.536;11.884;2023-03-14T04:43:27;3.20;;;1.17;;
28834;SDS011;15969;51.536;11.884;2023-03-14T04:45:53;2.23;;;1.00;;
28834;SDS011;15969;51.536;11.884;2023-03-14T04:48:20;3.03;;;1.17;;
28834;SDS011;15969;51.536;11.884;2023-03-14T04:50:46;4.47;;;1.40;;
28834;SDS011;15969;51.536;11.884;2023-03-14T04:53:13;1.47;;;0.80;;
28834;SDS011;15969;51.536;11.884;2023-03-14T04:55:39;3.97;;;1.13;;
28834;SDS011;15969;51.536;11.884;2023-03-14T04:58:05;4.17;;;1.10;;
28834;SDS011;15969;51.536;11.884;2023-03-14T05:00:31;2.33;;;1.00;;
28834;SDS011;15969;51.536;11.884;2023-03-14T05:02:56;3.47;;;1.13;;
28834;SDS011;15969;51.536;11.884;2023-03-14T05:05:23;4.93;;;1.23;;
28834;SDS011;15969;51.536;11.884;2023-03-14T05:07:48;2.27;;;1.00;;
28834;SDS011;15969;51.536;11.884;2023-03-14T05:10:14;5.33;;;1.30;;
28834;SDS011;15969;51.536;11.884;2023-03-14T05:12:40;1.93;;;1.03;;
28834;SDS011;15969;51.536;11.884;2023-03-14T05:15:06;2.90;;;1.30;;
28834;SDS011;15969;51.536;11.884;2023-03-14T05:17:33;5.47;;;1.57;;
28834;SDS011;15969;51.536;11.884;2023-03-14T05:19:59;3.67;;;1.10;;
28834;SDS011;15969;51.536;11.884;2023-03-14T05:22:24;3.70;;;1.23;;
28834;SDS011;15969;51.536;11.884;2023-03-14T05:24:50;4.93;;;1.77;;
28834;SDS011;15969;51.536;11.884;2023-03-14T05:27:16;4.13;;;1.43;;
28834;SDS011;15969;51.536;11.884;2023-03-14T05:29:42;3.90;;;1.47;;
28834;SDS011;15969;51.536;11.884;2023-03-14T05:32:07;7.60;;;1.90;;
28834;SDS011;15969;51.536;11.884;2023-03-14T05:34:33;2.60;;;1.20;;
28834;SDS011;15969;51.536;11.884;2023-03-14T05:36:59;3.17;;;1.20;;
28834;SDS011;15969;51.536;11.884;2023-03-14T05:39:25;3.77;;;1.60;;
28834;SDS011;15969;51.536;11.884;2023-03-14T05:41:50;4.07;;;1.57;;
28834;SDS011;15969;51.536;11.884;2023-03-14T05:44:16;5.27;;;1.33;;
28834;SDS011;15969;51.536;11.884;2023-03-14T05:46:42;2.43;;;1.10;;
28834;SDS011;15969;51.536;11.884;2023-03-14T05:49:07;2.80;;;1.30;;
28834;SDS011;15969;51.536;11.884;2023-03-14T05:51:33;3.67;;;1.30;;
28834;SDS011;15969;51.536;11.884;2023-03-14T05:53:59;5.23;;;1.50;;
28834;SDS011;15969;51.536;11.884;2023-03-14T05:56:24;4.97;;;1.30;;
28834;SDS011;15969;51.536;11.884;2023-03-14T05:58:50;3.07;;;1.20;;
28834;SDS011;15969;51.536;11.884;2023-03-14T06:01:16;4.33;;;1.33;;
28834;SDS011;15969;51.536;11.884;2023-03-14T06:03:41;2.80;;;1.00;;
28834;SDS011;15969;51.536;11.884;2023-03-14T06:06:07;2.63;;;1.20;;
28834;SDS011;15969;51.536;11.884;2023-03-14T06:08:33;4.80;;;1.30;;
28834;SDS011;15969;51.536;11.884;2023-03-14T06:10:59;3.80;;;0.90;;
28834;SDS011;15969;51.536;11.884;2023-03-14T06:13:27;2.97;;;1.33;;
28834;SDS011;15969;51.536;11.884;2023-03-14T06:15:53;3.37;;;1.03;;
28834;SDS011;15969;51.536;11.884;2023-03-14T06:18:19;4.10;;;1.20;;
28834;SDS011;15969;51.536;11.884;2023-03-14T06:20:44;8.73;;;1.97;;
28834;SDS011;15969;51.536;11.884;2023-03-14T06:23:10;3.40;;;1.17;;
28834;SDS011;15969;51.536;11.884;2023-03-14T06:25:36;3.33;;;1.80;;
28834;SDS011;15969;51.536;11.884;2023-03-14T06:28:02;6.27;;;1.20;;
28834;SDS011;15969;51.536;11.884;2023-03-14T06:30:27;2.73;;;0.93;;
28834;SDS011;15969;51.536;11.884;2023-03-14T06:32:53;4.23;;;1.20;;
28834;SDS011;15969;51.536;11.884;2023-03-14T06:35:20;4.03;;;0.83;;
28834;SDS011;15969;51.536;11.884;2023-03-14T06:37:47;4.23;;;1.00;;
28834;SDS011;15969;51.536;11.884;2023-03-14T06:40:13;3.80;;;1.03;;
28834;SDS011;15969;51.536;11.884;2023-03-14T06:42:42;1.93;;;1.10;;
28834;SDS011;15969;51.536;11.884;2023-03-14T06:45:09;3.50;;;1.30;;
28834;SDS011;15969;51.536;11.884;2023-03-14T06:47:35;3.10;;;1.17;;
28834;SDS011;15969;51.536;11.884;2023-03-14T06:50:01;4.87;;;1.43;;
28834;SDS011;15969;51.536;11.884;2023-03-14T06:52:26;3.47;;;1.20;;
28834;SDS011;15969;51.536;11.884;2023-03-14T06:54:52;2.93;;;1.03;;
28834;SDS011;15969;51.536;11.884;2023-03-14T06:57:18;8.07;;;1.47;;
28834;SDS011;15969;51.536;11.884;2023-03-14T06:59:43;3.10;;;1.40;;
28834;SDS011;15969;51.536;11.884;2023-03-14T07:02:12;6.10;;;1.60;;
28834;SDS011;15969;51.536;11.884;2023-03-14T07:04:38;3.13;;;1.10;;
28834;SDS011;15969;51.536;11.884;2023-03-14T07:07:04;6.20;;;1.30;;
28834;SDS011;15969;51.536;11.884;2023-03-14T07:09:30;2.23;;;1.07;;
28834;SDS011;15969;51.536;11.884;2023-03-14T07:11:56;3.70;;;1.00;;
28834;SDS011;15969;51.536;11.884;2023-03-14T07:14:22;3.03;;;1.07;;
28834;SDS011;15969;51.536;11.884;2023-03-14T07:16:48;4.23;;;1.40;;
28834;SDS011;15969;51.536;11.884;2023-03-14T07:19:13;3.60;;;1.23;;
28834;SDS011;15969;51.536;11.884;2023-03-14T07:21:39;3.50;;;1.03;;
28834;SDS011;15969;51.536;11.884;2023-03-14T07:24:05;3.40;;;1.10;;
28834;SDS011;15969;51.536;11.884;2023-03-14T07:26:30;7.73;;;1.30;;
28834;SDS011;15969;51.536;11.884;2023-03-14T07:28:56;4.13;;;1.20;;
28834;SDS011;15969;51.536;11.884;2023-03-14T07:31:22;3.67;;;1.40;;
28834;SDS011;15969;51.536;11.884;2023-03-14T07:33:48;4.00;;;1.13;;
28834;SDS011;15969;51.536;11.884;2023-03-14T07:36:13;5.07;;;1.20;;
28834;SDS011;15969;51.536;11.884;2023-03-14T07:38:39;3.73;;;1.03;;
28834;SDS011;15969;51.536;11.884;2023-03-14T07:41:05;3.80;;;1.20;;
28834;SDS011;15969;51.536;11.884;2023-03-14T07:43:31;2.97;;;1.23;;
28834;SDS011;15969;51.536;11.884;2023-03-14T07:45:58;3.07;;;1.13;;
28834;SDS011;15969;51.536;11.884;2023-03-14T07:48:24;3.93;;;1.13;;
28834;SDS011;15969;51.536;11.884;2023-03-14T07:50:50;5.10;;;1.03;;
28834;SDS011;15969;51.536;11.884;2023-03-14T07:53:17;4.63;;;1.20;;
28834;SDS011;15969;51.536;11.884;2023-03-14T07:55:43;1.73;;;0.90;;
28834;SDS011;15969;51.536;11.884;2023-03-14T07:58:09;1.80;;;0.83;;
28834;SDS011;15969;51.536;11.884;2023-03-14T08:00:35;4.73;;;1.17;;
28834;SDS011;15969;51.536;11.884;2023-03-14T08:03:00;3.17;;;1.37;;
28834;SDS011;15969;51.536;11.884;2023-03-14T08:05:27;2.70;;;1.10;;
28834;SDS011;15969;51.536;11.884;2023-03-14T08:07:52;3.83;;;1.30;;
28834;SDS011;15969;51.536;11.884;2023-03-14T08:10:18;3.67;;;1.10;;
28834;SDS011;15969;51.536;11.884;2023-03-14T08:12:53;3.03;;;1.40;;
28834;SDS011;15969;51.536;11.884;2023-03-14T08:15:21;3.70;;;1.20;;
28834;SDS011;15969;51.536;11.884;2023-03-14T08:17:48;5.87;;;1.07;;
28834;SDS011;15969;51.536;11.884;2023-03-14T08:20:25;2.60;;;0.90;;
28834;SDS011;15969;51.536;11.884;2023-03-14T08:22:57;3.90;;;0.90;;
28834;SDS011;15969;51.536;11.884;2023-03-14T08:25:24;3.30;;;1.00;;
28834;SDS011;15969;51.536;11.884;2023-03-14T08:27:51;3.73;;;0.83;;
28834;SDS011;15969;51.536;11.884;2023-03-14T08:30:17;2.27;;;0.97;;
28834;SDS011;15969;51.536;11.884;2023-03-14T08:32:44;1.43;;;0.70;;
28834;SDS011;15969;51.536;11.884;2023-03-14T08:35:10;1.97;;;0.70;;
28834;SDS011;15969;51.536;11.884;2023-03-14T08:37:36;1.80;;;1.10;;
28834;SDS011;15969;51.536;11.884;2023-03-14T08:40:02;5.00;;;1.20;;
28834;SDS011;15969;51.536;11.884;2023-03-14T08:42:34;4.73;;;1.37;;
28834;SDS011;15969;51.536;11.884;2023-03-14T08:45:01;1.67;;;0.90;;
28834;SDS011;15969;51.536;11.884;2023-03-14T08:47:28;1.93;;;0.90;;
28834;SDS011;15969;51.536;11.884;2023-03-14T08:49:53;1.80;;;0.73;;
28834;SDS011;15969;51.536;11.884;2023-03-14T08:52:19;2.23;;;0.93;;
28834;SDS011;15969;51.536;11.884;2023-03-14T08:54:45;2.53;;;0.90;;
28834;SDS011;15969;51.536;11.884;2023-03-14T08:57:11;2.03;;;0.90;;
28834;SDS011;15969;51.536;11.884;2023-03-14T08:59:37;3.50;;;0.90;;
28834;SDS011;15969;51.536;11.884;2023-03-14T09:02:03;2.57;;;0.77;;
28834;SDS011;15969;51.536;11.884;2023-03-14T09:04:29;2.10;;;0.80;;
28834;SDS011;15969;51.536;11.884;2023-03-14T09:06:56;2.70;;;0.73;;
28834;SDS011;15969;51.536;11.884;2023-03-14T09:09:23;3.40;;;0.80;;
28834;SDS011;15969;51.536;11.884;2023-03-14T09:11:52;2.03;;;0.87;;
28834;SDS011;15969;51.536;11.884;2023-03-14T09:14:18;1.17;;;0.60;;
28834;SDS011;15969;51.536;11.884;2023-03-14T09:16:44;2.17;;;0.77;;
28834;SDS011;15969;51.536;11.884;2023-03-14T09:19:09;1.13;;;0.70;;
28834;SDS011;15969;51.536;11.884;2023-03-14T09:21:35;2.97;;;0.63;;
28834;SDS011;15969;51.536;11.884;2023-03-14T09:24:02;3.17;;;0.77;;
28834;SDS011;15969;51.536;11.884;2023-03-14T09:26:28;3.10;;;0.73;;
28834;SDS011;15969;51.536;11.884;2023-03-14T09:28:53;1.13;;;0.50;;
28834;SDS011;15969;51.536;11.884;2023-03-14T09:31:19;1.73;;;0.77;;
28834;SDS011;15969;51.536;11.884;2023-03-14T09:33:45;0.90;;;0.50;;
28834;SDS011;15969;51.536;11.884;2023-03-14T09:36:10;3.87;;;1.10;;
28834;SDS011;15969;51.536;11.884;2023-03-14T09:38:36;1.10;;;0.60;;
28834;SDS011;15969;51.536;11.884;2023-03-14T09:41:02;3.27;;;0.70;;
28834;SDS011;15969;51.536;11.884;2023-03-14T09:43:37;2.70;;;0.87;;
28834;SDS011;15969;51.536;11.884;2023-03-14T09:46:05;2.60;;;0.90;;
28834;SDS011;15969;51.536;11.884;2023-03-14T09:48:33;2.80;;;0.90;;
28834;SDS011;15969;51.536;11.884;2023-03-14T09:50:59;1.77;;;0.60;;
28834;SDS011;15969;51.536;11.884;2023-03-14T09:53:37;1.17;;;0.50;;
28834;SDS011;15969;51.536;11.884;2023-03-14T09:56:11;1.90;;;0.70;;
28834;SDS011;15969;51.536;11.884;2023-03-14T09:58:42;0.70;;;0.50;;
28834;SDS011;15969;51.536;11.884;2023-03-14T10:01:13;0.67;;;0.47;;
28834;SDS011;15969;51.536;11.884;2023-03-14T10:03:44;0.60;;;0.37;;
28834;SDS011;15969;51.536;11.884;2023-03-14T10:06:11;3.20;;;0.40;;
28834;SDS011;15969;51.536;11.884;2023-03-14T10:08:42;1.10;;;0.80;;
28834;SDS011;15969;51.536;11.884;2023-03-14T10:11:16;1.13;;;0.40;;
28834;SDS011;15969;51.536;11.884;2023-03-14T10:16:34;3.70;;;0.40;;
28834;SDS011;15969;51.536;11.884;2023-03-14T10:19:07;1.10;;;0.43;;
28834;SDS011;15969;51.536;11.884;2023-03-14T10:21:41;0.73;;;0.27;;
28834;SDS011;15969;51.536;11.884;2023-03-14T10:24:25;1.30;;;0.40;;
28834;SDS011;15969;51.536;11.884;2023-03-14T10:27:01;0.80;;;0.40;;
28834;SDS011;15969;51.536;11.884;2023-03-14T10:29:30;1.03;;;0.47;;
28834;SDS011;15969;51.536;11.884;2023-03-14T10:31:59;0.80;;;0.30;;
28834;SDS011;15969;51.536;11.884;2023-03-14T10:37:21;1.47;;;0.30;;
28834;SDS011;15969;51.536;11.884;2023-03-14T10:39:51;0.70;;;0.30;;
28834;SDS011;15969;51.536;11.884;2023-03-14T10:42:26;0.67;;;0.30;;
28834;SDS011;15969;51.536;11.884;2023-03-14T10:44:55;1.73;;;0.43;;
28834;SDS011;15969;51.536;11.884;2023-03-14T10:47:25;0.60;;;0.40;;
28834;SDS011;15969;51.536;11.884;2023-03-14T10:49:53;0.67;;;0.30;;
28834;SDS011;15969;51.536;11.884;2023-03-14T10:52:24;0.67;;;0.30;;
28834;SDS011;15969;51.536;11.884;2023-03-14T10:54:59;0.47;;;0.20;;
28834;SDS011;15969;51.536;11.884;2023-03-14T10:57:28;0.50;;;0.20;;
28834;SDS011;15969;51.536;11.884;2023-03-14T10:59:54;1.20;;;0.30;;
28834;SDS011;15969;51.536;11.884;2023-03-14T11:02:31;0.70;;;0.30;;
28834;SDS011;15969;51.536;11.884;2023-03-14T11:05:19;1.20;;;0.37;;
28834;SDS011;15969;51.536;11.884;2023-03-14T11:08:25;0.77;;;0.40;;
28834;SDS011;15969;51.536;11.884;2023-03-14T11:11:25;3.87;;;0.53;;
28834;SDS011;15969;51.536;11.884;2023-03-14T11:22:20;0.60;;;0.37;;
28834;SDS011;15969;51.536;11.884;2023-03-14T11:28:09;1.37;;;0.40;;
28834;SDS011;15969;51.536;11.884;2023-03-14T11:30:53;1.37;;;0.50;;
28834;SDS011;15969;51.536;11.884;2023-03-14T11:33:28;0.50;;;0.37;;
28834;SDS011;15969;51.536;11.884;2023-03-14T11:36:14;1.37;;;0.43;;
28834;SDS011;15969;51.536;11.884;2023-03-14T11:41:59;0.83;;;0.40;;
28834;SDS011;15969;51.536;11.884;2023-03-14T11:44:08;0.47;;;0.40;;
28834;SDS011;15969;51.536;11.884;2023-03-14T11:46:47;2.20;;;0.40;;
28834;SDS011;15969;51.536;11.884;2023-03-14T11:49:52;0.90;;;0.20;;
28834;SDS011;15969;51.536;11.884;2023-03-14T11:52:37;2.00;;;0.40;;
28834;SDS011;15969;51.536;11.884;2023-03-14T12:00:53;0.50;;;0.40;;
28834;SDS011;15969;51.536;11.884;2023-03-14T12:03:35;0.50;;;0.23;;
28834;SDS011;15969;51.536;11.884;2023-03-14T12:06:16;0.77;;;0.33;;
28834;SDS011;15969;51.536;11.884;2023-03-14T12:08:56;1.90;;;0.30;;
28834;SDS011;15969;51.536;11.884;2023-03-14T12:11:32;0.77;;;0.30;;
28834;SDS011;15969;51.536;11.884;2023-03-14T12:14:15;0.77;;;0.30;;
28834;SDS011;15969;51.536;11.884;2023-03-14T12:16:46;2.77;;;0.50;;
28834;SDS011;15969;51.536;11.884;2023-03-14T12:19:14;1.07;;;0.60;;
28834;SDS011;15969;51.536;11.884;2023-03-14T12:21:47;1.60;;;0.40;;
28834;SDS011;15969;51.536;11.884;2023-03-14T12:24:25;2.93;;;0.30;;
28834;SDS011;15969;51.536;11.884;2023-03-14T12:26:56;0.40;;;0.30;;
28834;SDS011;15969;51.536;11.884;2023-03-14T12:29:27;0.87;;;0.40;;
28834;SDS011;15969;51.536;11.884;2023-03-14T12:39:44;3.60;;;0.50;;
28834;SDS011;15969;51.536;11.884;2023-03-14T12:45:27;0.90;;;0.47;;
28834;SDS011;15969;51.536;11.884;2023-03-14T12:47:56;0.50;;;0.30;;
28834;SDS011;15969;51.536;11.884;2023-03-14T12:50:41;0.53;;;0.30;;
28834;SDS011;15969;51.536;11.884;2023-03-14T12:53:15;1.37;;;0.40;;
28834;SDS011;15969;51.536;11.884;2023-03-14T12:56:05;1.73;;;0.33;;
28834;SDS011;15969;51.536;11.884;2023-03-14T13:01:45;2.20;;;0.47;;
28834;SDS011;15969;51.536;11.884;2023-03-14T13:04:18;0.50;;;0.40;;
28834;SDS011;15969;51.536;11.884;2023-03-14T13:06:58;0.80;;;0.60;;
28834;SDS011;15969;51.536;11.884;2023-03-14T13:11:56;0.53;;;0.30;;
28834;SDS011;15969;51.536;11.884;2023-03-14T13:14:34;0.60;;;0.40;;
28834;SDS011;15969;51.536;11.884;2023-03-14T13:17:01;0.60;;;0.30;;
28834;SDS011;15969;51.536;11.884;2023-03-14T13:19:27;2.30;;;0.50;;
28834;SDS011;15969;51.536;11.884;2023-03-14T13:21:56;5.13;;;0.50;;
28834;SDS011;15969;51.536;11.884;2023-03-14T13:24:33;0.70;;;0.40;;
28834;SDS011;15969;51.536;11.884;2023-03-14T13:26:59;1.77;;;0.50;;
28834;SDS011;15969;51.536;11.884;2023-03-14T13:29:27;1.07;;;0.40;;
28834;SDS011;15969;51.536;11.884;2023-03-14T13:31:56;0.43;;;0.30;;
28834;SDS011;15969;51.536;11.884;2023-03-14T13:34:29;0.97;;;0.40;;
28834;SDS011;15969;51.536;11.884;2023-03-14T13:36:59;0.77;;;0.40;;
28834;SDS011;15969;51.536;11.884;2023-03-14T13:39:26;0.50;;;0.40;;
28834;SDS011;15969;51.536;11.884;2023-03-14T13:41:54;0.77;;;0.43;;
28834;SDS011;15969;51.536;11.884;2023-03-14T13:44:27;1.23;;;0.70;;
28834;SDS011;15969;51.536;11.884;2023-03-14T13:47:04;1.00;;;0.30;;
28834;SDS011;15969;51.536;11.884;2023-03-14T13:49:36;0.80;;;0.40;;
28834;SDS011;15969;51.536;11.884;2023-03-14T13:52:03;0.40;;;0.30;;
28834;SDS011;15969;51.536;11.884;2023-03-14T13:54:45;0.70;;;0.33;;
28834;SDS011;15969;51.536;11.884;2023-03-14T13:57:10;2.23;;;0.40;;
28834;SDS011;15969;51.536;11.884;2023-03-14T13:59:36;1.60;;;0.50;;
28834;SDS011;15969;51.536;11.884;2023-03-14T14:02:14;1.23;;;0.40;;
28834;SDS011;15969;51.536;11.884;2023-03-14T14:04:40;0.63;;;0.47;;
28834;SDS011;15969;51.536;11.884;2023-03-14T14:07:10;2.87;;;0.30;;
28834;SDS011;15969;51.536;11.884;2023-03-14T14:09:45;1.27;;;0.40;;
28834;SDS011;15969;51.536;11.884;2023-03-14T14:12:21;1.13;;;0.43;;
28834;SDS011;15969;51.536;11.884;2023-03-14T14:14:56;0.73;;;0.37;;
28834;SDS011;15969;51.536;11.884;2023-03-14T14:17:31;0.50;;;0.40;;
28834;SDS011;15969;51.536;11.884;2023-03-14T14:20:04;0.90;;;0.53;;
28834;SDS011;15969;51.536;11.884;2023-03-14T14:22:39;0.80;;;0.40;;
28834;SDS011;15969;51.536;11.884;2023-03-14T14:25:05;1.40;;;0.50;;
28834;SDS011;15969;51.536;11.884;2023-03-14T14:27:38;1.07;;;0.70;;
28834;SDS011;15969;51.536;11.884;2023-03-14T14:32:43;3.07;;;0.87;;
28834;SDS011;15969;51.536;11.884;2023-03-14T14:35:10;1.17;;;0.70;;
28834;SDS011;15969;51.536;11.884;2023-03-14T14:37:48;5.43;;;1.00;;
28834;SDS011;15969;51.536;11.884;2023-03-14T14:42:47;0.97;;;0.50;;
28834;SDS011;15969;51.536;11.884;2023-03-14T14:45:16;1.80;;;0.63;;
28834;SDS011;15969;51.536;11.884;2023-03-14T14:48:04;0.80;;;0.43;;
28834;SDS011;15969;51.536;11.884;2023-03-14T14:50:36;1.37;;;0.70;;
28834;SDS011;15969;51.536;11.884;2023-03-14T14:53:47;1.23;;;0.83;;
28834;SDS011;15969;51.536;11.884;2023-03-14T14:56:19;5.07;;;0.90;;
28834;SDS011;15969;51.536;11.884;2023-03-14T14:58:50;1.90;;;0.70;;
28834;SDS011;15969;51.536;11.884;2023-03-14T15:01:23;0.60;;;0.60;;
28834;SDS011;15969;51.536;11.884;2023-03-14T15:03:51;2.30;;;0.80;;
28834;SDS011;15969;51.536;11.884;2023-03-14T15:06:18;2.20;;;0.50;;
28834;SDS011;15969;51.536;11.884;2023-03-14T15:08:46;0.90;;;0.30;;
28834;SDS011;15969;51.536;11.884;2023-03-14T15:11:17;0.83;;;0.33;;
28834;SDS011;15969;51.536;11.884;2023-03-14T15:13:47;0.97;;;0.50;;
28834;SDS011;15969;51.536;11.884;2023-03-14T15:16:13;1.10;;;0.40;;
28834;SDS011;15969;51.536;11.884;2023-03-14T15:18:42;2.67;;;0.30;;
28834;SDS011;15969;51.536;11.884;2023-03-14T15:21:09;0.70;;;0.40;;
28834;SDS011;15969;51.536;11.884;2023-03-14T15:23:35;0.50;;;0.33;;
28834;SDS011;15969;51.536;11.884;2023-03-14T15:26:01;0.53;;;0.40;;
28834;SDS011;15969;51.536;11.884;2023-03-14T15:28:28;0.50;;;0.40;;
28834;SDS011;15969;51.536;11.884;2023-03-14T15:30:55;0.40;;;0.30;;
28834;SDS011;15969;51.536;11.884;2023-03-14T15:33:24;0.30;;;0.20;;
28834;SDS011;15969;51.536;11.884;2023-03-14T15:35:51;0.80;;;0.40;;